sensor_id;sensor_type;location;lat;lon;timestamp;temperature;humidity
25360;DHT22;13311;51.386;0.016;2023-04-01T00:02:01;14.60;99.60
25360;DHT22;13311;51.386;0.016;2023-04-01T00:07:02;14.70;99.50
25360;DHT22;13311;51.386;0.016;2023-04-01T00:12:03;14.70;99.30
25360;DHT22;13311;51.386;0.016;2023-04-01T00:17:04;14.70;99.20
25360;DHT22;13311;51.386;0.016;2023-04-01T00:22:05;14.80;98.60
25360;DHT22;13311;51.386;0.016;2023-04-01T00:27:06;14.80;98.80
25360;DHT22;13311;51.386;0.016;2023-04-01T00:32:08;14.60;99.20
25360;DHT22;13311;51.386;0.016;2023-04-01T00:37:09;14.70;99.10
25360;DHT22;13311;51.386;0.016;2023-04-01T00:42:10;14.80;98.80
25360;DHT22;13311;51.386;0.016;2023-04-01T00:47:12;14.70;99.00
25360;DHT22;13311;51.386;0.016;2023-04-01T00:52:16;14.70;98.70
25360;DHT22;13311;51.386;0.016;2023-04-01T00:57:23;14.60;99.00
25360;DHT22;13311;51.386;0.016;2023-04-01T01:02:27;14.70;98.70
25360;DHT22;13311;51.386;0.016;2023-04-01T01:13:58;14.60;98.80
25360;DHT22;13311;51.386;0.016;2023-04-01T01:18:35;14.70;98.50
25360;DHT22;13311;51.386;0.016;2023-04-01T01:24:17;14.60;98.60
25360;DHT22;13311;51.386;0.016;2023-04-01T01:29:50;14.60;98.60
25360;DHT22;13311;51.386;0.016;2023-04-01T01:40:24;14.40;98.90
25360;DHT22;13311;51.386;0.016;2023-04-01T01:45:27;14.30;99.10
25360;DHT22;13311;51.386;0.016;2023-04-01T01:50:29;14.50;99.00
25360;DHT22;13311;51.386;0.016;2023-04-01T01:55:32;14.50;98.60
25360;DHT22;13311;51.386;0.016;2023-04-01T02:00:37;14.50;98.40
25360;DHT22;13311;51.386;0.016;2023-04-01T02:05:39;14.70;97.90
25360;DHT22;13311;51.386;0.016;2023-04-01T02:10:48;14.50;97.90
25360;DHT22;13311;51.386;0.016;2023-04-01T02:15:59;14.50;97.70
25360;DHT22;13311;51.386;0.016;2023-04-01T02:21:04;14.50;97.90
25360;DHT22;13311;51.386;0.016;2023-04-01T02:26:07;14.50;97.80
25360;DHT22;13311;51.386;0.016;2023-04-01T02:31:12;14.30;97.70
25360;DHT22;13311;51.386;0.016;2023-04-01T02:36:14;14.30;97.80
25360;DHT22;13311;51.386;0.016;2023-04-01T02:41:15;14.10;98.00
25360;DHT22;13311;51.386;0.016;2023-04-01T02:46:16;14.00;98.10
25360;DHT22;13311;51.386;0.016;2023-04-01T02:51:17;14.00;98.30
25360;DHT22;13311;51.386;0.016;2023-04-01T02:56:18;14.00;98.40
25360;DHT22;13311;51.386;0.016;2023-04-01T03:01:20;13.90;98.40
25360;DHT22;13311;51.386;0.016;2023-04-01T03:06:21;13.90;98.40
25360;DHT22;13311;51.386;0.016;2023-04-01T03:11:22;13.90;98.50
25360;DHT22;13311;51.386;0.016;2023-04-01T03:16:23;14.00;98.40
25360;DHT22;13311;51.386;0.016;2023-04-01T03:21:24;14.00;98.30
25360;DHT22;13311;51.386;0.016;2023-04-01T03:26:26;14.00;98.10
25360;DHT22;13311;51.386;0.016;2023-04-01T03:31:29;14.00;98.10
25360;DHT22;13311;51.386;0.016;2023-04-01T03:36:30;14.00;98.00
25360;DHT22;13311;51.386;0.016;2023-04-01T03:41:31;14.00;97.80
25360;DHT22;13311;51.386;0.016;2023-04-01T03:46:32;14.20;97.70
25360;DHT22;13311;51.386;0.016;2023-04-01T03:51:33;14.10;97.50
25360;DHT22;13311;51.386;0.016;2023-04-01T03:56:34;14.00;97.60
25360;DHT22;13311;51.386;0.016;2023-04-01T04:01:35;14.00;97.60
25360;DHT22;13311;51.386;0.016;2023-04-01T04:06:36;14.00;97.70
25360;DHT22;13311;51.386;0.016;2023-04-01T04:11:36;14.00;97.50
25360;DHT22;13311;51.386;0.016;2023-04-01T04:16:37;13.90;97.70
25360;DHT22;13311;51.386;0.016;2023-04-01T04:21:39;13.90;97.60
25360;DHT22;13311;51.386;0.016;2023-04-01T04:26:41;13.90;97.40
25360;DHT22;13311;51.386;0.016;2023-04-01T04:31:42;13.80;97.60
25360;DHT22;13311;51.386;0.016;2023-04-01T04:36:44;13.80;97.90
25360;DHT22;13311;51.386;0.016;2023-04-01T04:41:45;13.90;97.50
25360;DHT22;13311;51.386;0.016;2023-04-01T04:46:46;13.70;97.50
25360;DHT22;13311;51.386;0.016;2023-04-01T04:51:46;13.60;97.60
25360;DHT22;13311;51.386;0.016;2023-04-01T04:56:51;13.60;97.60
25360;DHT22;13311;51.386;0.016;2023-04-01T05:01:53;13.50;97.80
25360;DHT22;13311;51.386;0.016;2023-04-01T05:06:53;13.50;98.10
25360;DHT22;13311;51.386;0.016;2023-04-01T05:11:54;13.50;98.10
25360;DHT22;13311;51.386;0.016;2023-04-01T05:16:55;13.60;97.70
25360;DHT22;13311;51.386;0.016;2023-04-01T05:21:56;13.50;97.90
25360;DHT22;13311;51.386;0.016;2023-04-01T05:26:57;13.40;98.20
25360;DHT22;13311;51.386;0.016;2023-04-01T05:31:58;13.40;98.20
25360;DHT22;13311;51.386;0.016;2023-04-01T05:36:58;13.40;98.50
25360;DHT22;13311;51.386;0.016;2023-04-01T05:41:59;13.30;98.40
25360;DHT22;13311;51.386;0.016;2023-04-01T05:47:00;13.30;98.50
25360;DHT22;13311;51.386;0.016;2023-04-01T05:52:01;13.40;98.40
25360;DHT22;13311;51.386;0.016;2023-04-01T05:57:02;13.30;98.30
25360;DHT22;13311;51.386;0.016;2023-04-01T06:02:03;13.40;98.00
25360;DHT22;13311;51.386;0.016;2023-04-01T06:07:11;13.30;98.40
25360;DHT22;13311;51.386;0.016;2023-04-01T06:28:44;13.50;97.50
25360;DHT22;13311;51.386;0.016;2023-04-01T06:56:16;13.50;97.20
25360;DHT22;13311;51.386;0.016;2023-04-01T07:01:36;13.20;97.30
25360;DHT22;13311;51.386;0.016;2023-04-01T07:06:57;13.00;97.80
25360;DHT22;13311;51.386;0.016;2023-04-01T07:12:00;13.20;97.90
25360;DHT22;13311;51.386;0.016;2023-04-01T07:17:12;13.50;97.70
25360;DHT22;13311;51.386;0.016;2023-04-01T07:22:43;13.30;97.50
25360;DHT22;13311;51.386;0.016;2023-04-01T07:27:51;13.10;97.60
25360;DHT22;13311;51.386;0.016;2023-04-01T07:32:58;13.10;97.70
25360;DHT22;13311;51.386;0.016;2023-04-01T07:49:08;13.50;97.60
25360;DHT22;13311;51.386;0.016;2023-04-01T07:54:35;13.50;97.60
25360;DHT22;13311;51.386;0.016;2023-04-01T08:10:52;13.50;97.30
25360;DHT22;13311;51.386;0.016;2023-04-01T08:21:55;13.50;97.20
25360;DHT22;13311;51.386;0.016;2023-04-01T08:27:01;13.20;97.40
25360;DHT22;13311;51.386;0.016;2023-04-01T08:32:14;13.10;97.80
25360;DHT22;13311;51.386;0.016;2023-04-01T08:37:22;13.30;97.80
25360;DHT22;13311;51.386;0.016;2023-04-01T08:47:50;13.40;97.30
25360;DHT22;13311;51.386;0.016;2023-04-01T08:53:18;13.30;97.30
25360;DHT22;13311;51.386;0.016;2023-04-01T09:42:26;14.10;96.30
25360;DHT22;13311;51.386;0.016;2023-04-01T10:27:19;14.50;95.80
25360;DHT22;13311;51.386;0.016;2023-04-01T10:32:34;14.50;95.50
25360;DHT22;13311;51.386;0.016;2023-04-01T10:43:34;14.40;96.00
25360;DHT22;13311;51.386;0.016;2023-04-01T10:49:22;14.50;96.00
25360;DHT22;13311;51.386;0.016;2023-04-01T10:54:58;14.70;95.80
25360;DHT22;13311;51.386;0.016;2023-04-01T12:07:19;14.80;95.80
25360;DHT22;13311;51.386;0.016;2023-04-01T12:13:07;15.00;95.70
25360;DHT22;13311;51.386;0.016;2023-04-01T12:45:35;15.00;94.10
25360;DHT22;13311;51.386;0.016;2023-04-01T12:51:18;14.80;93.80
25360;DHT22;13311;51.386;0.016;2023-04-01T12:56:48;14.70;93.60
25360;DHT22;13311;51.386;0.016;2023-04-01T13:07:47;14.60;94.30
25360;DHT22;13311;51.386;0.016;2023-04-01T13:28:50;14.40;93.60
25360;DHT22;13311;51.386;0.016;2023-04-01T13:45:01;14.30;94.00
25360;DHT22;13311;51.386;0.016;2023-04-01T13:56:19;14.40;94.00
25360;DHT22;13311;51.386;0.016;2023-04-01T14:12:39;15.20;94.00
25360;DHT22;13311;51.386;0.016;2023-04-01T14:29:08;15.10;91.70
25360;DHT22;13311;51.386;0.016;2023-04-01T14:40:42;15.20;92.70
25360;DHT22;13311;51.386;0.016;2023-04-01T14:51:02;15.30;92.10
25360;DHT22;13311;51.386;0.016;2023-04-01T14:56:08;15.40;92.30
25360;DHT22;13311;51.386;0.016;2023-04-01T15:13:17;15.10;91.70
25360;DHT22;13311;51.386;0.016;2023-04-01T15:24:22;14.80;92.00
25360;DHT22;13311;51.386;0.016;2023-04-01T15:29:52;14.80;92.40
25360;DHT22;13311;51.386;0.016;2023-04-01T15:40:37;14.90;93.20
25360;DHT22;13311;51.386;0.016;2023-04-01T15:56:44;14.40;92.40
25360;DHT22;13311;51.386;0.016;2023-04-01T16:24:19;13.90;94.10
25360;DHT22;13311;51.386;0.016;2023-04-01T16:30:00;14.20;94.10
25360;DHT22;13311;51.386;0.016;2023-04-01T16:35:31;14.10;94.50
25360;DHT22;13311;51.386;0.016;2023-04-01T16:57:02;14.00;93.40
25360;DHT22;13311;51.386;0.016;2023-04-01T17:02:13;13.90;93.70
25360;DHT22;13311;51.386;0.016;2023-04-01T17:13:24;13.60;93.20
25360;DHT22;13311;51.386;0.016;2023-04-01T17:19:13;13.40;93.50
25360;DHT22;13311;51.386;0.016;2023-04-01T18:08:17;14.40;92.90
25360;DHT22;13311;51.386;0.016;2023-04-01T18:19:06;14.30;92.50
25360;DHT22;13311;51.386;0.016;2023-04-01T18:24:18;14.20;91.80
25360;DHT22;13311;51.386;0.016;2023-04-01T18:29:39;14.20;92.30
25360;DHT22;13311;51.386;0.016;2023-04-01T18:40:51;14.30;92.20
25360;DHT22;13311;51.386;0.016;2023-04-01T18:46:00;14.00;91.90
25360;DHT22;13311;51.386;0.016;2023-04-01T18:51:17;13.80;93.50
25360;DHT22;13311;51.386;0.016;2023-04-01T18:56:41;13.80;93.10
25360;DHT22;13311;51.386;0.016;2023-04-01T19:07:43;13.70;92.70
25360;DHT22;13311;51.386;0.016;2023-04-01T19:18:49;13.50;94.20
25360;DHT22;13311;51.386;0.016;2023-04-01T19:25:02;13.40;94.20
25360;DHT22;13311;51.386;0.016;2023-04-01T19:35:19;13.10;95.20
25360;DHT22;13311;51.386;0.016;2023-04-01T19:46:09;12.50;96.60
25360;DHT22;13311;51.386;0.016;2023-04-01T19:51:56;12.40;97.70
25360;DHT22;13311;51.386;0.016;2023-04-01T20:02:33;12.30;98.50
25360;DHT22;13311;51.386;0.016;2023-04-01T20:07:41;12.10;98.60
25360;DHT22;13311;51.386;0.016;2023-04-01T20:17:59;12.00;98.60
25360;DHT22;13311;51.386;0.016;2023-04-01T20:34:50;11.90;97.90
25360;DHT22;13311;51.386;0.016;2023-04-01T20:40:18;11.60;98.10
25360;DHT22;13311;51.386;0.016;2023-04-01T20:56:23;11.80;97.70
25360;DHT22;13311;51.386;0.016;2023-04-01T21:07:33;11.90;97.10
25360;DHT22;13311;51.386;0.016;2023-04-01T21:23:56;12.20;96.30
25360;DHT22;13311;51.386;0.016;2023-04-01T21:34:51;12.20;96.20
25360;DHT22;13311;51.386;0.016;2023-04-01T22:03:14;11.80;95.30
25360;DHT22;13311;51.386;0.016;2023-04-01T22:08:36;11.80;95.70
25360;DHT22;13311;51.386;0.016;2023-04-01T22:14:05;11.60;96.00
25360;DHT22;13311;51.386;0.016;2023-04-01T22:19:37;11.60;96.10
25360;DHT22;13311;51.386;0.016;2023-04-01T22:30:09;11.70;96.20
25360;DHT22;13311;51.386;0.016;2023-04-01T22:52:46;11.70;96.00
25360;DHT22;13311;51.386;0.016;2023-04-01T22:58:00;11.70;95.60
25360;DHT22;13311;51.386;0.016;2023-04-01T23:03:21;11.60;95.50
25360;DHT22;13311;51.386;0.016;2023-04-01T23:19:49;11.70;95.90
25360;DHT22;13311;51.386;0.016;2023-04-01T23:36:00;11.50;96.10
25360;DHT22;13311;51.386;0.016;2023-04-01T23:41:06;11.50;96.20
25360;DHT22;13311;51.386;0.016;2023-04-01T23:46:08;11.60;96.80
25360;DHT22;13311;51.386;0.016;2023-04-01T23:51:27;11.50;96.00
25360;DHT22;13311;51.386;0.016;2023-04-01T23:56:46;11.20;96.50
